sensor_id;sensor_type;location;lat;lon;timestamp;P1;durP1;ratioP1;P2;durP2;ratioP2
21519;SDS011;10921;53.614;9.882;2024-03-23T00:53:07;56.70;;;18.02;;
21519;SDS011;10921;53.614;9.882;2024-03-23T00:55:33;55.08;;;17.33;;
21519;SDS011;10921;53.614;9.882;2024-03-23T00:57:58;50.83;;;17.33;;
21519;SDS011;10921;53.614;9.882;2024-03-23T01:00:24;64.13;;;19.20;;
21519;SDS011;10921;53.614;9.882;2024-03-23T01:02:49;56.53;;;18.65;;
21519;SDS011;10921;53.614;9.882;2024-03-23T01:05:15;49.10;;;17.77;;
21519;SDS011;10921;53.614;9.882;2024-03-23T01:07:41;53.00;;;18.25;;
21519;SDS011;10921;53.614;9.882;2024-03-23T01:10:06;64.25;;;18.75;;
21519;SDS011;10921;53.614;9.882;2024-03-23T01:12:32;56.60;;;18.20;;
21519;SDS011;10921;53.614;9.882;2024-03-23T01:14:58;60.58;;;18.48;;
21519;SDS011;10921;53.614;9.882;2024-03-23T01:17:23;68.18;;;19.02;;
21519;SDS011;10921;53.614;9.882;2024-03-23T01:19:49;55.25;;;17.90;;
21519;SDS011;10921;53.614;9.882;2024-03-23T01:22:14;54.38;;;18.60;;
21519;SDS011;10921;53.614;9.882;2024-03-23T01:24:40;56.97;;;18.80;;
21519;SDS011;10921;53.614;9.882;2024-03-23T01:27:06;54.95;;;17.45;;
21519;SDS011;10921;53.614;9.882;2024-03-23T01:29:31;51.05;;;19.02;;
21519;SDS011;10921;53.614;9.882;2024-03-23T01:31:57;42.42;;;17.55;;
21519;SDS011;10921;53.614;9.882;2024-03-23T01:34:22;62.05;;;17.80;;
21519;SDS011;10921;53.614;9.882;2024-03-23T01:36:50;59.72;;;17.88;;
21519;SDS011;10921;53.614;9.882;2024-03-23T01:39:16;52.38;;;17.67;;
21519;SDS011;10921;53.614;9.882;2024-03-23T01:41:41;53.75;;;17.60;;
21519;SDS011;10921;53.614;9.882;2024-03-23T01:44:08;48.17;;;18.08;;
21519;SDS011;10921;53.614;9.882;2024-03-23T01:46:37;53.22;;;18.20;;
21519;SDS011;10921;53.614;9.882;2024-03-23T01:49:04;61.10;;;19.05;;
21519;SDS011;10921;53.614;9.882;2024-03-23T01:51:30;61.75;;;18.15;;
21519;SDS011;10921;53.614;9.882;2024-03-23T01:53:58;56.97;;;17.67;;
21519;SDS011;10921;53.614;9.882;2024-03-23T01:56:28;62.38;;;19.27;;
21519;SDS011;10921;53.614;9.882;2024-03-23T01:59:02;57.17;;;17.70;;
21519;SDS011;10921;53.614;9.882;2024-03-23T02:01:31;48.22;;;17.52;;
21519;SDS011;10921;53.614;9.882;2024-03-23T02:03:57;58.40;;;19.23;;
21519;SDS011;10921;53.614;9.882;2024-03-23T02:06:24;56.45;;;18.35;;
21519;SDS011;10921;53.614;9.882;2024-03-23T02:08:50;50.92;;;17.45;;
21519;SDS011;10921;53.614;9.882;2024-03-23T02:11:16;64.13;;;20.10;;
21519;SDS011;10921;53.614;9.882;2024-03-23T02:13:41;45.40;;;15.80;;
21519;SDS011;10921;53.614;9.882;2024-03-23T02:16:07;68.88;;;18.95;;
21519;SDS011;10921;53.614;9.882;2024-03-23T02:18:34;55.28;;;18.10;;
21519;SDS011;10921;53.614;9.882;2024-03-23T02:20:59;63.33;;;19.67;;
21519;SDS011;10921;53.614;9.882;2024-03-23T02:23:25;57.70;;;17.92;;
21519;SDS011;10921;53.614;9.882;2024-03-23T02:25:51;54.80;;;17.80;;
21519;SDS011;10921;53.614;9.882;2024-03-23T02:28:18;55.38;;;18.50;;
21519;SDS011;10921;53.614;9.882;2024-03-23T02:30:44;51.90;;;18.80;;
21519;SDS011;10921;53.614;9.882;2024-03-23T02:33:10;62.33;;;18.15;;
21519;SDS011;10921;53.614;9.882;2024-03-23T02:35:35;59.13;;;18.65;;
21519;SDS011;10921;53.614;9.882;2024-03-23T02:38:01;56.90;;;19.50;;
21519;SDS011;10921;53.614;9.882;2024-03-23T02:40:27;50.38;;;18.83;;
21519;SDS011;10921;53.614;9.882;2024-03-23T02:42:53;59.78;;;17.85;;
21519;SDS011;10921;53.614;9.882;2024-03-23T02:45:18;54.03;;;18.77;;
21519;SDS011;10921;53.614;9.882;2024-03-23T02:47:44;52.30;;;18.85;;
21519;SDS011;10921;53.614;9.882;2024-03-23T02:50:10;67.60;;;20.42;;
21519;SDS011;10921;53.614;9.882;2024-03-23T02:52:36;61.85;;;18.35;;
21519;SDS011;10921;53.614;9.882;2024-03-23T02:55:02;56.25;;;17.98;;
21519;SDS011;10921;53.614;9.882;2024-03-23T02:57:28;53.10;;;17.95;;
21519;SDS011;10921;53.614;9.882;2024-03-23T02:59:54;64.95;;;19.85;;
21519;SDS011;10921;53.614;9.882;2024-03-23T03:02:20;50.88;;;18.63;;
21519;SDS011;10921;53.614;9.882;2024-03-23T03:04:47;57.80;;;18.42;;
21519;SDS011;10921;53.614;9.882;2024-03-23T03:07:13;62.10;;;18.80;;
21519;SDS011;10921;53.614;9.882;2024-03-23T03:09:38;68.25;;;20.25;;
21519;SDS011;10921;53.614;9.882;2024-03-23T03:12:07;60.78;;;19.08;;
21519;SDS011;10921;53.614;9.882;2024-03-23T03:14:33;48.42;;;17.48;;
21519;SDS011;10921;53.614;9.882;2024-03-23T03:16:59;54.00;;;17.88;;
21519;SDS011;10921;53.614;9.882;2024-03-23T03:19:25;58.13;;;18.20;;
21519;SDS011;10921;53.614;9.882;2024-03-23T03:21:51;52.83;;;17.75;;
21519;SDS011;10921;53.614;9.882;2024-03-23T03:24:17;48.85;;;18.10;;
21519;SDS011;10921;53.614;9.882;2024-03-23T03:26:43;60.47;;;19.60;;
21519;SDS011;10921;53.614;9.882;2024-03-23T03:29:09;52.83;;;18.27;;
21519;SDS011;10921;53.614;9.882;2024-03-23T03:31:35;60.13;;;18.88;;
21519;SDS011;10921;53.614;9.882;2024-03-23T03:34:01;63.55;;;19.20;;
21519;SDS011;10921;53.614;9.882;2024-03-23T03:36:27;55.40;;;18.50;;
21519;SDS011;10921;53.614;9.882;2024-03-23T03:38:53;77.18;;;19.80;;
21519;SDS011;10921;53.614;9.882;2024-03-23T03:41:18;59.40;;;17.77;;
21519;SDS011;10921;53.614;9.882;2024-03-23T03:43:44;69.43;;;20.33;;
21519;SDS011;10921;53.614;9.882;2024-03-23T03:46:10;56.70;;;17.65;;
21519;SDS011;10921;53.614;9.882;2024-03-23T03:48:36;48.47;;;18.70;;
21519;SDS011;10921;53.614;9.882;2024-03-23T03:51:02;57.55;;;18.77;;
21519;SDS011;10921;53.614;9.882;2024-03-23T03:53:28;58.17;;;18.25;;
21519;SDS011;10921;53.614;9.882;2024-03-23T03:55:54;54.05;;;18.15;;
21519;SDS011;10921;53.614;9.882;2024-03-23T03:58:19;58.92;;;19.58;;
21519;SDS011;10921;53.614;9.882;2024-03-23T04:00:45;57.53;;;19.23;;
21519;SDS011;10921;53.614;9.882;2024-03-23T04:03:10;58.25;;;19.02;;
21519;SDS011;10921;53.614;9.882;2024-03-23T04:05:36;51.42;;;17.50;;
21519;SDS011;10921;53.614;9.882;2024-03-23T04:08:01;57.70;;;19.88;;
21519;SDS011;10921;53.614;9.882;2024-03-23T04:10:27;43.97;;;18.88;;
21519;SDS011;10921;53.614;9.882;2024-03-23T04:12:52;66.38;;;20.45;;
21519;SDS011;10921;53.614;9.882;2024-03-23T04:15:19;60.28;;;15.50;;
21519;SDS011;10921;53.614;9.882;2024-03-23T04:17:45;52.65;;;17.92;;
21519;SDS011;10921;53.614;9.882;2024-03-23T04:20:11;49.83;;;18.60;;
21519;SDS011;10921;53.614;9.882;2024-03-23T04:22:39;49.80;;;18.52;;
21519;SDS011;10921;53.614;9.882;2024-03-23T04:25:05;49.70;;;18.50;;
21519;SDS011;10921;53.614;9.882;2024-03-23T04:30:01;43.22;;;17.70;;
21519;SDS011;10921;53.614;9.882;2024-03-23T04:32:29;48.00;;;19.65;;
21519;SDS011;10921;53.614;9.882;2024-03-23T04:34:54;55.10;;;18.25;;
21519;SDS011;10921;53.614;9.882;2024-03-23T04:37:21;60.53;;;18.90;;
21519;SDS011;10921;53.614;9.882;2024-03-23T04:39:47;56.63;;;19.13;;
21519;SDS011;10921;53.614;9.882;2024-03-23T04:42:14;57.60;;;19.80;;
21519;SDS011;10921;53.614;9.882;2024-03-23T04:44:41;49.13;;;18.27;;
21519;SDS011;10921;53.614;9.882;2024-03-23T04:47:06;69.20;;;20.45;;
21519;SDS011;10921;53.614;9.882;2024-03-23T04:49:32;52.33;;;19.15;;
21519;SDS011;10921;53.614;9.882;2024-03-23T04:51:57;50.08;;;19.63;;
21519;SDS011;10921;53.614;9.882;2024-03-23T04:54:23;61.97;;;19.40;;
21519;SDS011;10921;53.614;9.882;2024-03-23T04:56:49;56.22;;;18.77;;
21519;SDS011;10921;53.614;9.882;2024-03-23T04:59:14;63.13;;;20.52;;
21519;SDS011;10921;53.614;9.882;2024-03-23T05:01:40;56.88;;;19.60;;
21519;SDS011;10921;53.614;9.882;2024-03-23T05:04:07;53.50;;;15.98;;
21519;SDS011;10921;53.614;9.882;2024-03-23T05:06:33;57.13;;;16.73;;
21519;SDS011;10921;53.614;9.882;2024-03-23T05:08:59;51.40;;;14.75;;
21519;SDS011;10921;53.614;9.882;2024-03-23T05:11:28;46.22;;;15.15;;
21519;SDS011;10921;53.614;9.882;2024-03-23T05:13:53;52.38;;;15.50;;
21519;SDS011;10921;53.614;9.882;2024-03-23T05:16:19;53.47;;;16.88;;
21519;SDS011;10921;53.614;9.882;2024-03-23T05:18:44;58.33;;;16.40;;
21519;SDS011;10921;53.614;9.882;2024-03-23T05:21:10;54.25;;;15.20;;
21519;SDS011;10921;53.614;9.882;2024-03-23T05:23:36;50.33;;;16.30;;
21519;SDS011;10921;53.614;9.882;2024-03-23T05:26:03;65.90;;;17.25;;
21519;SDS011;10921;53.614;9.882;2024-03-23T05:28:29;45.85;;;15.65;;
21519;SDS011;10921;53.614;9.882;2024-03-23T05:30:55;42.05;;;15.73;;
21519;SDS011;10921;53.614;9.882;2024-03-23T05:33:22;55.83;;;15.95;;
21519;SDS011;10921;53.614;9.882;2024-03-23T05:35:55;51.95;;;15.35;;
21519;SDS011;10921;53.614;9.882;2024-03-23T05:38:25;47.03;;;16.10;;
21519;SDS011;10921;53.614;9.882;2024-03-23T05:43:21;57.63;;;16.75;;
21519;SDS011;10921;53.614;9.882;2024-03-23T05:45:59;56.33;;;15.70;;
21519;SDS011;10921;53.614;9.882;2024-03-23T05:48:30;49.58;;;15.35;;
21519;SDS011;10921;53.614;9.882;2024-03-23T05:50:57;61.20;;;16.20;;
21519;SDS011;10921;53.614;9.882;2024-03-23T05:53:23;47.05;;;15.45;;
21519;SDS011;10921;53.614;9.882;2024-03-23T05:55:49;53.13;;;15.65;;
21519;SDS011;10921;53.614;9.882;2024-03-23T05:58:16;49.08;;;15.25;;
21519;SDS011;10921;53.614;9.882;2024-03-23T06:00:43;51.95;;;15.23;;
21519;SDS011;10921;53.614;9.882;2024-03-23T06:03:09;56.33;;;15.57;;
21519;SDS011;10921;53.614;9.882;2024-03-23T06:05:35;48.83;;;15.45;;
21519;SDS011;10921;53.614;9.882;2024-03-23T06:08:04;49.00;;;15.18;;
21519;SDS011;10921;53.614;9.882;2024-03-23T06:10:30;43.17;;;14.65;;
21519;SDS011;10921;53.614;9.882;2024-03-23T06:12:56;53.97;;;15.10;;
21519;SDS011;10921;53.614;9.882;2024-03-23T06:15:23;39.00;;;14.70;;
21519;SDS011;10921;53.614;9.882;2024-03-23T06:17:49;47.25;;;14.73;;
21519;SDS011;10921;53.614;9.882;2024-03-23T06:20:15;44.90;;;14.55;;
21519;SDS011;10921;53.614;9.882;2024-03-23T06:22:40;44.53;;;14.70;;
21519;SDS011;10921;53.614;9.882;2024-03-23T06:25:06;55.85;;;14.27;;
21519;SDS011;10921;53.614;9.882;2024-03-23T06:27:32;46.85;;;13.48;;
21519;SDS011;10921;53.614;9.882;2024-03-23T06:29:59;49.50;;;15.50;;
21519;SDS011;10921;53.614;9.882;2024-03-23T06:32:24;46.78;;;13.85;;
21519;SDS011;10921;53.614;9.882;2024-03-23T06:34:50;42.08;;;14.40;;
21519;SDS011;10921;53.614;9.882;2024-03-23T06:37:16;57.85;;;15.73;;
21519;SDS011;10921;53.614;9.882;2024-03-23T06:39:41;51.55;;;15.23;;
21519;SDS011;10921;53.614;9.882;2024-03-23T06:42:07;34.78;;;13.73;;
21519;SDS011;10921;53.614;9.882;2024-03-23T06:44:33;36.67;;;14.15;;
21519;SDS011;10921;53.614;9.882;2024-03-23T06:46:59;50.55;;;14.15;;
21519;SDS011;10921;53.614;9.882;2024-03-23T06:49:25;46.28;;;14.32;;
21519;SDS011;10921;53.614;9.882;2024-03-23T06:51:50;46.08;;;13.90;;
21519;SDS011;10921;53.614;9.882;2024-03-23T06:54:16;47.50;;;14.52;;
21519;SDS011;10921;53.614;9.882;2024-03-23T06:56:46;49.60;;;14.98;;
21519;SDS011;10921;53.614;9.882;2024-03-23T06:59:12;44.17;;;13.73;;
21519;SDS011;10921;53.614;9.882;2024-03-23T07:01:37;42.95;;;14.27;;
21519;SDS011;10921;53.614;9.882;2024-03-23T07:04:03;48.38;;;15.10;;
21519;SDS011;10921;53.614;9.882;2024-03-23T07:06:29;46.90;;;14.35;;
21519;SDS011;10921;53.614;9.882;2024-03-23T07:08:55;58.60;;;15.23;;
21519;SDS011;10921;53.614;9.882;2024-03-23T07:11:21;59.13;;;16.13;;
21519;SDS011;10921;53.614;9.882;2024-03-23T07:13:51;38.40;;;12.68;;
21519;SDS011;10921;53.614;9.882;2024-03-23T07:16:17;47.75;;;13.57;;
21519;SDS011;10921;53.614;9.882;2024-03-23T07:18:43;49.10;;;14.93;;
21519;SDS011;10921;53.614;9.882;2024-03-23T07:21:09;52.60;;;13.55;;
21519;SDS011;10921;53.614;9.882;2024-03-23T07:23:35;47.72;;;14.45;;
21519;SDS011;10921;53.614;9.882;2024-03-23T07:26:01;44.58;;;16.67;;
21519;SDS011;10921;53.614;9.882;2024-03-23T07:28:31;44.13;;;17.20;;
21519;SDS011;10921;53.614;9.882;2024-03-23T07:31:04;47.10;;;17.67;;
21519;SDS011;10921;53.614;9.882;2024-03-23T07:33:31;52.63;;;16.77;;
21519;SDS011;10921;53.614;9.882;2024-03-23T07:35:57;44.53;;;16.48;;
21519;SDS011;10921;53.614;9.882;2024-03-23T07:38:26;51.83;;;17.80;;
21519;SDS011;10921;53.614;9.882;2024-03-23T07:40:52;43.60;;;17.20;;
21519;SDS011;10921;53.614;9.882;2024-03-23T07:43:21;49.25;;;17.48;;
21519;SDS011;10921;53.614;9.882;2024-03-23T07:45:51;42.80;;;17.40;;
21519;SDS011;10921;53.614;9.882;2024-03-23T07:48:22;40.47;;;16.88;;
21519;SDS011;10921;53.614;9.882;2024-03-23T07:51:01;40.33;;;17.85;;
21519;SDS011;10921;53.614;9.882;2024-03-23T07:53:33;42.42;;;16.52;;
21519;SDS011;10921;53.614;9.882;2024-03-23T07:56:07;32.05;;;16.00;;
21519;SDS011;10921;53.614;9.882;2024-03-23T07:58:35;38.08;;;16.38;;
21519;SDS011;10921;53.614;9.882;2024-03-23T08:03:30;32.63;;;15.68;;
21519;SDS011;10921;53.614;9.882;2024-03-23T08:05:56;42.08;;;17.63;;
21519;SDS011;10921;53.614;9.882;2024-03-23T08:08:22;39.63;;;16.70;;
21519;SDS011;10921;53.614;9.882;2024-03-23T08:10:48;46.22;;;17.80;;
21519;SDS011;10921;53.614;9.882;2024-03-23T08:13:14;39.88;;;17.27;;
21519;SDS011;10921;53.614;9.882;2024-03-23T08:15:39;45.28;;;17.85;;
21519;SDS011;10921;53.614;9.882;2024-03-23T08:18:05;42.22;;;17.10;;
21519;SDS011;10921;53.614;9.882;2024-03-23T08:20:30;51.97;;;17.95;;
21519;SDS011;10921;53.614;9.882;2024-03-23T08:22:56;37.85;;;17.38;;
21519;SDS011;10921;53.614;9.882;2024-03-23T08:25:21;47.33;;;18.70;;
21519;SDS011;10921;53.614;9.882;2024-03-23T08:27:47;48.50;;;19.70;;
21519;SDS011;10921;53.614;9.882;2024-03-23T08:30:13;41.50;;;17.38;;
21519;SDS011;10921;53.614;9.882;2024-03-23T08:32:38;45.38;;;18.23;;
21519;SDS011;10921;53.614;9.882;2024-03-23T08:35:04;42.33;;;16.73;;
21519;SDS011;10921;53.614;9.882;2024-03-23T08:37:30;39.20;;;17.70;;
21519;SDS011;10921;53.614;9.882;2024-03-23T08:39:55;37.88;;;17.70;;
21519;SDS011;10921;53.614;9.882;2024-03-23T08:42:21;39.17;;;18.33;;
21519;SDS011;10921;53.614;9.882;2024-03-23T08:44:47;47.78;;;17.15;;
21519;SDS011;10921;53.614;9.882;2024-03-23T08:47:17;41.90;;;17.83;;
21519;SDS011;10921;53.614;9.882;2024-03-23T08:49:44;40.60;;;17.30;;
21519;SDS011;10921;53.614;9.882;2024-03-23T08:52:10;40.85;;;17.92;;
21519;SDS011;10921;53.614;9.882;2024-03-23T08:54:35;50.50;;;18.27;;
21519;SDS011;10921;53.614;9.882;2024-03-23T08:57:01;33.95;;;17.50;;
21519;SDS011;10921;53.614;9.882;2024-03-23T08:59:26;41.75;;;17.23;;
21519;SDS011;10921;53.614;9.882;2024-03-23T09:01:52;33.83;;;17.38;;
21519;SDS011;10921;53.614;9.882;2024-03-23T09:04:18;32.60;;;16.35;;
21519;SDS011;10921;53.614;9.882;2024-03-23T09:06:44;35.88;;;16.30;;
21519;SDS011;10921;53.614;9.882;2024-03-23T09:09:09;37.72;;;15.45;;
21519;SDS011;10921;53.614;9.882;2024-03-23T09:11:35;42.42;;;16.77;;
21519;SDS011;10921;53.614;9.882;2024-03-23T09:14:02;39.80;;;17.00;;
21519;SDS011;10921;53.614;9.882;2024-03-23T09:16:28;29.73;;;15.40;;
21519;SDS011;10921;53.614;9.882;2024-03-23T09:18:54;31.73;;;14.90;;
21519;SDS011;10921;53.614;9.882;2024-03-23T09:21:20;30.65;;;15.60;;
21519;SDS011;10921;53.614;9.882;2024-03-23T09:23:45;32.72;;;15.57;;
21519;SDS011;10921;53.614;9.882;2024-03-23T09:26:11;41.45;;;19.10;;
21519;SDS011;10921;53.614;9.882;2024-03-23T09:28:37;27.98;;;16.10;;
21519;SDS011;10921;53.614;9.882;2024-03-23T09:31:03;36.65;;;16.83;;
21519;SDS011;10921;53.614;9.882;2024-03-23T09:33:29;29.92;;;18.67;;
21519;SDS011;10921;53.614;9.882;2024-03-23T09:35:55;33.00;;;14.80;;
21519;SDS011;10921;53.614;9.882;2024-03-23T09:38:22;24.88;;;14.07;;
21519;SDS011;10921;53.614;9.882;2024-03-23T09:40:48;31.85;;;16.15;;
21519;SDS011;10921;53.614;9.882;2024-03-23T09:43:18;26.55;;;14.38;;
21519;SDS011;10921;53.614;9.882;2024-03-23T09:45:44;34.17;;;16.20;;
21519;SDS011;10921;53.614;9.882;2024-03-23T09:48:10;23.10;;;14.85;;
21519;SDS011;10921;53.614;9.882;2024-03-23T09:50:39;32.67;;;17.20;;
21519;SDS011;10921;53.614;9.882;2024-03-23T09:53:09;41.17;;;20.50;;
21519;SDS011;10921;53.614;9.882;2024-03-23T09:55:39;40.53;;;24.67;;
21519;SDS011;10921;53.614;9.882;2024-03-23T09:58:06;40.33;;;25.17;;
21519;SDS011;10921;53.614;9.882;2024-03-23T10:00:35;41.40;;;25.30;;
21519;SDS011;10921;53.614;9.882;2024-03-23T10:03:01;52.30;;;31.40;;
21519;SDS011;10921;53.614;9.882;2024-03-23T10:05:30;38.78;;;26.65;;
21519;SDS011;10921;53.614;9.882;2024-03-23T10:10:39;39.55;;;20.02;;
21519;SDS011;10921;53.614;9.882;2024-03-23T10:13:08;33.42;;;19.40;;
21519;SDS011;10921;53.614;9.882;2024-03-23T10:15:34;42.53;;;17.67;;
21519;SDS011;10921;53.614;9.882;2024-03-23T10:18:19;29.52;;;16.83;;
21519;SDS011;10921;53.614;9.882;2024-03-23T10:20:52;23.67;;;15.73;;
21519;SDS011;10921;53.614;9.882;2024-03-23T10:23:32;26.65;;;19.20;;
21519;SDS011;10921;53.614;9.882;2024-03-23T10:29:05;25.55;;;14.88;;
21519;SDS011;10921;53.614;9.882;2024-03-23T10:31:33;28.35;;;14.63;;
21519;SDS011;10921;53.614;9.882;2024-03-23T10:34:03;28.55;;;15.20;;
21519;SDS011;10921;53.614;9.882;2024-03-23T10:36:29;23.17;;;14.32;;
21519;SDS011;10921;53.614;9.882;2024-03-23T10:38:55;27.17;;;15.10;;
21519;SDS011;10921;53.614;9.882;2024-03-23T10:41:26;24.77;;;19.15;;
21519;SDS011;10921;53.614;9.882;2024-03-23T10:43:52;26.83;;;18.10;;
21519;SDS011;10921;53.614;9.882;2024-03-23T10:46:20;26.40;;;16.60;;
21519;SDS011;10921;53.614;9.882;2024-03-23T10:48:46;24.38;;;17.60;;
21519;SDS011;10921;53.614;9.882;2024-03-23T10:51:12;22.50;;;17.15;;
21519;SDS011;10921;53.614;9.882;2024-03-23T10:53:39;20.48;;;17.40;;
21519;SDS011;10921;53.614;9.882;2024-03-23T10:56:05;17.17;;;14.18;;
21519;SDS011;10921;53.614;9.882;2024-03-23T10:58:38;20.42;;;15.07;;
21519;SDS011;10921;53.614;9.882;2024-03-23T11:01:06;22.67;;;16.35;;
21519;SDS011;10921;53.614;9.882;2024-03-23T11:03:36;19.70;;;15.52;;
21519;SDS011;10921;53.614;9.882;2024-03-23T11:06:03;23.63;;;15.73;;
21519;SDS011;10921;53.614;9.882;2024-03-23T11:08:30;25.42;;;16.52;;
21519;SDS011;10921;53.614;9.882;2024-03-23T11:11:20;19.55;;;14.77;;
21519;SDS011;10921;53.614;9.882;2024-03-23T11:13:53;19.65;;;15.98;;
21519;SDS011;10921;53.614;9.882;2024-03-23T11:16:23;22.27;;;16.15;;
21519;SDS011;10921;53.614;9.882;2024-03-23T11:18:51;26.60;;;15.00;;
21519;SDS011;10921;53.614;9.882;2024-03-23T11:24:17;18.42;;;14.15;;
21519;SDS011;10921;53.614;9.882;2024-03-23T11:26:44;21.48;;;15.32;;
21519;SDS011;10921;53.614;9.882;2024-03-23T11:29:13;23.90;;;16.90;;
21519;SDS011;10921;53.614;9.882;2024-03-23T11:31:51;19.73;;;15.60;;
21519;SDS011;10921;53.614;9.882;2024-03-23T11:34:18;22.10;;;16.77;;
21519;SDS011;10921;53.614;9.882;2024-03-23T11:36:44;23.25;;;14.82;;
21519;SDS011;10921;53.614;9.882;2024-03-23T11:39:12;23.30;;;16.48;;
21519;SDS011;10921;53.614;9.882;2024-03-23T11:41:48;23.45;;;14.55;;
21519;SDS011;10921;53.614;9.882;2024-03-23T11:44:16;20.50;;;15.88;;
21519;SDS011;10921;53.614;9.882;2024-03-23T11:46:51;19.30;;;13.65;;
21519;SDS011;10921;53.614;9.882;2024-03-23T11:49:24;24.35;;;13.93;;
21519;SDS011;10921;53.614;9.882;2024-03-23T11:51:51;20.40;;;13.40;;
21519;SDS011;10921;53.614;9.882;2024-03-23T11:54:23;13.20;;;12.07;;
21519;SDS011;10921;53.614;9.882;2024-03-23T11:59:38;16.02;;;14.63;;
21519;SDS011;10921;53.614;9.882;2024-03-23T12:02:09;16.25;;;15.07;;
21519;SDS011;10921;53.614;9.882;2024-03-23T12:04:36;25.40;;;23.15;;
21519;SDS011;10921;53.614;9.882;2024-03-23T12:09:38;23.55;;;21.23;;
21519;SDS011;10921;53.614;9.882;2024-03-23T12:12:11;22.17;;;20.45;;
21519;SDS011;10921;53.614;9.882;2024-03-23T12:14:43;21.95;;;20.08;;
21519;SDS011;10921;53.614;9.882;2024-03-23T12:19:40;25.50;;;22.92;;
21519;SDS011;10921;53.614;9.882;2024-03-23T12:22:07;25.10;;;22.77;;
21519;SDS011;10921;53.614;9.882;2024-03-23T12:24:34;21.33;;;19.17;;
21519;SDS011;10921;53.614;9.882;2024-03-23T12:27:03;18.98;;;16.40;;
21519;SDS011;10921;53.614;9.882;2024-03-23T12:29:32;18.45;;;16.58;;
21519;SDS011;10921;53.614;9.882;2024-03-23T12:32:00;18.35;;;16.25;;
21519;SDS011;10921;53.614;9.882;2024-03-23T12:34:27;17.35;;;15.82;;
21519;SDS011;10921;53.614;9.882;2024-03-23T12:36:53;18.20;;;16.70;;
21519;SDS011;10921;53.614;9.882;2024-03-23T12:39:19;24.23;;;22.38;;
21519;SDS011;10921;53.614;9.882;2024-03-23T12:41:46;30.15;;;27.65;;
21519;SDS011;10921;53.614;9.882;2024-03-23T12:44:13;32.33;;;30.00;;
21519;SDS011;10921;53.614;9.882;2024-03-23T12:46:40;34.05;;;31.38;;
21519;SDS011;10921;53.614;9.882;2024-03-23T12:49:06;33.88;;;31.13;;
21519;SDS011;10921;53.614;9.882;2024-03-23T12:51:32;33.97;;;31.52;;
21519;SDS011;10921;53.614;9.882;2024-03-23T12:53:58;33.75;;;31.27;;
21519;SDS011;10921;53.614;9.882;2024-03-23T12:56:24;33.38;;;30.98;;
21519;SDS011;10921;53.614;9.882;2024-03-23T12:58:49;33.80;;;31.30;;
21519;SDS011;10921;53.614;9.882;2024-03-23T13:01:17;32.40;;;29.98;;
21519;SDS011;10921;53.614;9.882;2024-03-23T13:03:42;29.30;;;27.20;;
21519;SDS011;10921;53.614;9.882;2024-03-23T13:06:10;28.05;;;25.85;;
21519;SDS011;10921;53.614;9.882;2024-03-23T13:08:35;29.63;;;27.00;;
21519;SDS011;10921;53.614;9.882;2024-03-23T13:11:01;28.38;;;26.20;;
21519;SDS011;10921;53.614;9.882;2024-03-23T13:13:26;30.02;;;27.90;;
21519;SDS011;10921;53.614;9.882;2024-03-23T13:15:52;28.35;;;26.13;;
21519;SDS011;10921;53.614;9.882;2024-03-23T13:18:18;27.77;;;25.70;;
21519;SDS011;10921;53.614;9.882;2024-03-23T13:20:44;27.63;;;25.13;;
21519;SDS011;10921;53.614;9.882;2024-03-23T13:23:09;26.35;;;24.35;;
21519;SDS011;10921;53.614;9.882;2024-03-23T13:25:35;26.95;;;24.65;;
21519;SDS011;10921;53.614;9.882;2024-03-23T13:28:01;28.80;;;26.38;;
21519;SDS011;10921;53.614;9.882;2024-03-23T13:30:27;29.85;;;27.23;;
21519;SDS011;10921;53.614;9.882;2024-03-23T13:32:53;27.15;;;24.90;;
21519;SDS011;10921;53.614;9.882;2024-03-23T13:35:18;24.70;;;22.20;;
21519;SDS011;10921;53.614;9.882;2024-03-23T13:37:44;25.63;;;23.27;;
21519;SDS011;10921;53.614;9.882;2024-03-23T13:40:10;22.00;;;19.90;;
21519;SDS011;10921;53.614;9.882;2024-03-23T13:42:36;20.10;;;18.35;;
21519;SDS011;10921;53.614;9.882;2024-03-23T13:45:02;20.17;;;18.27;;
21519;SDS011;10921;53.614;9.882;2024-03-23T13:47:28;21.70;;;19.60;;
21519;SDS011;10921;53.614;9.882;2024-03-23T13:49:54;19.10;;;17.35;;
21519;SDS011;10921;53.614;9.882;2024-03-23T13:52:19;18.58;;;16.63;;
21519;SDS011;10921;53.614;9.882;2024-03-23T13:54:48;18.67;;;16.80;;
21519;SDS011;10921;53.614;9.882;2024-03-23T13:57:14;17.85;;;16.00;;
21519;SDS011;10921;53.614;9.882;2024-03-23T13:59:39;18.08;;;16.02;;
21519;SDS011;10921;53.614;9.882;2024-03-23T14:02:05;17.60;;;15.95;;
21519;SDS011;10921;53.614;9.882;2024-03-23T14:04:30;22.98;;;18.15;;
21519;SDS011;10921;53.614;9.882;2024-03-23T14:06:56;19.73;;;17.67;;
21519;SDS011;10921;53.614;9.882;2024-03-23T14:09:23;16.48;;;15.07;;
21519;SDS011;10921;53.614;9.882;2024-03-23T14:11:50;16.65;;;15.13;;
21519;SDS011;10921;53.614;9.882;2024-03-23T14:14:16;16.55;;;15.13;;
21519;SDS011;10921;53.614;9.882;2024-03-23T14:16:45;18.13;;;16.52;;
21519;SDS011;10921;53.614;9.882;2024-03-23T14:19:10;17.52;;;15.82;;
21519;SDS011;10921;53.614;9.882;2024-03-23T14:21:37;16.88;;;15.20;;
21519;SDS011;10921;53.614;9.882;2024-03-23T14:24:03;19.00;;;15.07;;
21519;SDS011;10921;53.614;9.882;2024-03-23T14:26:29;15.57;;;13.93;;
21519;SDS011;10921;53.614;9.882;2024-03-23T14:28:55;15.70;;;13.63;;
21519;SDS011;10921;53.614;9.882;2024-03-23T14:31:20;14.65;;;13.00;;
21519;SDS011;10921;53.614;9.882;2024-03-23T14:33:46;18.75;;;13.32;;
21519;SDS011;10921;53.614;9.882;2024-03-23T14:36:15;16.90;;;13.88;;
21519;SDS011;10921;53.614;9.882;2024-03-23T14:38:42;18.85;;;13.50;;
21519;SDS011;10921;53.614;9.882;2024-03-23T14:41:12;17.85;;;13.85;;
21519;SDS011;10921;53.614;9.882;2024-03-23T14:43:38;17.70;;;12.70;;
21519;SDS011;10921;53.614;9.882;2024-03-23T14:46:07;15.43;;;12.98;;
21519;SDS011;10921;53.614;9.882;2024-03-23T14:48:38;16.50;;;13.02;;
21519;SDS011;10921;53.614;9.882;2024-03-23T14:51:04;17.17;;;15.70;;
21519;SDS011;10921;53.614;9.882;2024-03-23T14:53:32;18.42;;;16.85;;
21519;SDS011;10921;53.614;9.882;2024-03-23T14:56:02;17.73;;;16.00;;
21519;SDS011;10921;53.614;9.882;2024-03-23T14:58:28;16.00;;;14.80;;
21519;SDS011;10921;53.614;9.882;2024-03-23T15:01:04;15.88;;;14.60;;
21519;SDS011;10921;53.614;9.882;2024-03-23T15:03:34;15.13;;;14.13;;
21519;SDS011;10921;53.614;9.882;2024-03-23T15:05:59;14.70;;;13.70;;
21519;SDS011;10921;53.614;9.882;2024-03-23T15:08:26;14.40;;;13.40;;
21519;SDS011;10921;53.614;9.882;2024-03-23T15:10:53;15.00;;;14.00;;
21519;SDS011;10921;53.614;9.882;2024-03-23T15:13:18;14.88;;;13.88;;
21519;SDS011;10921;53.614;9.882;2024-03-23T15:15:44;15.77;;;14.57;;
21519;SDS011;10921;53.614;9.882;2024-03-23T15:18:10;15.00;;;13.80;;
21519;SDS011;10921;53.614;9.882;2024-03-23T15:20:38;14.75;;;13.55;;
21519;SDS011;10921;53.614;9.882;2024-03-23T15:23:04;14.98;;;13.63;;
21519;SDS011;10921;53.614;9.882;2024-03-23T15:25:30;14.52;;;13.45;;
21519;SDS011;10921;53.614;9.882;2024-03-23T15:27:56;14.40;;;13.30;;
21519;SDS011;10921;53.614;9.882;2024-03-23T15:30:23;14.40;;;13.40;;
21519;SDS011;10921;53.614;9.882;2024-03-23T15:32:49;15.18;;;13.70;;
21519;SDS011;10921;53.614;9.882;2024-03-23T15:35:14;16.50;;;13.73;;